sensor_id;sensor_type;location;lat;lon;timestamp;temperature;humidity
17529;DHT22;8882;53.192;8.184;2023-03-01T05:31:21;-2.20;99.90
17529;DHT22;8882;53.192;8.184;2023-03-01T05:33:47;-2.20;99.90
17529;DHT22;8882;53.192;8.184;2023-03-01T05:36:12;-2.20;99.90
17529;DHT22;8882;53.192;8.184;2023-03-01T05:38:38;-2.20;99.90
17529;DHT22;8882;53.192;8.184;2023-03-01T05:41:04;-2.20;99.90
17529;DHT22;8882;53.192;8.184;2023-03-01T05:43:32;-2.20;99.90
17529;DHT22;8882;53.192;8.184;2023-03-01T05:46:01;-2.20;99.90
17529;DHT22;8882;53.192;8.184;2023-03-01T05:48:26;-2.30;99.90
17529;DHT22;8882;53.192;8.184;2023-03-01T05:50:52;-2.30;99.90
17529;DHT22;8882;53.192;8.184;2023-03-01T05:53:19;-2.30;99.90
17529;DHT22;8882;53.192;8.184;2023-03-01T05:55:48;-2.30;99.90
17529;DHT22;8882;53.192;8.184;2023-03-01T05:58:17;-2.40;99.90
17529;DHT22;8882;53.192;8.184;2023-03-01T06:00:46;-2.40;99.90
17529;DHT22;8882;53.192;8.184;2023-03-01T06:03:13;-2.40;99.90
17529;DHT22;8882;53.192;8.184;2023-03-01T06:05:40;-2.40;99.90
17529;DHT22;8882;53.192;8.184;2023-03-01T06:08:06;-2.40;99.90
17529;DHT22;8882;53.192;8.184;2023-03-01T06:10:32;-2.40;99.90
17529;DHT22;8882;53.192;8.184;2023-03-01T06:12:58;-2.50;99.90
17529;DHT22;8882;53.192;8.184;2023-03-01T06:15:24;-2.40;99.90
17529;DHT22;8882;53.192;8.184;2023-03-01T06:17:50;-2.50;99.90
17529;DHT22;8882;53.192;8.184;2023-03-01T06:20:21;-2.50;99.90
17529;DHT22;8882;53.192;8.184;2023-03-01T06:22:48;-2.40;99.90
17529;DHT22;8882;53.192;8.184;2023-03-01T06:25:16;-2.40;99.90
17529;DHT22;8882;53.192;8.184;2023-03-01T06:27:42;-2.40;99.90
17529;DHT22;8882;53.192;8.184;2023-03-01T06:30:11;-2.40;99.90
17529;DHT22;8882;53.192;8.184;2023-03-01T06:32:38;-2.30;99.90
17529;DHT22;8882;53.192;8.184;2023-03-01T06:35:07;-2.30;99.90
17529;DHT22;8882;53.192;8.184;2023-03-01T06:37:32;-2.30;99.90
17529;DHT22;8882;53.192;8.184;2023-03-01T06:39:58;-2.30;99.90
17529;DHT22;8882;53.192;8.184;2023-03-01T06:42:24;-2.40;99.90
17529;DHT22;8882;53.192;8.184;2023-03-01T06:44:49;-2.40;99.90
17529;DHT22;8882;53.192;8.184;2023-03-01T06:47:15;-2.30;99.90
17529;DHT22;8882;53.192;8.184;2023-03-01T06:49:41;-2.30;99.90
17529;DHT22;8882;53.192;8.184;2023-03-01T06:52:06;-2.40;99.90
17529;DHT22;8882;53.192;8.184;2023-03-01T06:54:32;-2.30;99.90
17529;DHT22;8882;53.192;8.184;2023-03-01T06:56:57;-2.30;99.90
17529;DHT22;8882;53.192;8.184;2023-03-01T06:59:23;-2.30;99.90
17529;DHT22;8882;53.192;8.184;2023-03-01T07:01:48;-2.20;99.90
17529;DHT22;8882;53.192;8.184;2023-03-01T07:04:14;-2.20;99.90
17529;DHT22;8882;53.192;8.184;2023-03-01T07:06:40;-2.20;99.90
17529;DHT22;8882;53.192;8.184;2023-03-01T07:09:05;-2.10;99.90
17529;DHT22;8882;53.192;8.184;2023-03-01T07:11:31;-2.10;99.90
17529;DHT22;8882;53.192;8.184;2023-03-01T07:13:56;-2.00;99.90
17529;DHT22;8882;53.192;8.184;2023-03-01T07:16:23;-1.90;99.90
17529;DHT22;8882;53.192;8.184;2023-03-01T07:18:49;-1.90;99.90
17529;DHT22;8882;53.192;8.184;2023-03-01T07:21:14;-1.90;99.90
17529;DHT22;8882;53.192;8.184;2023-03-01T07:23:41;-1.80;99.90
17529;DHT22;8882;53.192;8.184;2023-03-01T07:26:07;-1.80;99.90
17529;DHT22;8882;53.192;8.184;2023-03-01T07:28:32;-1.70;99.90
17529;DHT22;8882;53.192;8.184;2023-03-01T07:31:05;-1.60;99.90
17529;DHT22;8882;53.192;8.184;2023-03-01T07:33:31;-1.00;99.90
17529;DHT22;8882;53.192;8.184;2023-03-01T07:36:01;-0.90;99.90
17529;DHT22;8882;53.192;8.184;2023-03-01T07:38:29;-1.00;99.90
17529;DHT22;8882;53.192;8.184;2023-03-01T07:40:59;-1.00;99.90
17529;DHT22;8882;53.192;8.184;2023-03-01T07:43:24;-1.00;99.90
17529;DHT22;8882;53.192;8.184;2023-03-01T07:45:50;-1.00;99.90
17529;DHT22;8882;53.192;8.184;2023-03-01T07:48:15;-1.00;99.90
17529;DHT22;8882;53.192;8.184;2023-03-01T07:50:41;-1.00;99.90
17529;DHT22;8882;53.192;8.184;2023-03-01T07:53:06;-1.00;99.90
17529;DHT22;8882;53.192;8.184;2023-03-01T07:55:32;-1.00;99.90
17529;DHT22;8882;53.192;8.184;2023-03-01T07:57:57;-0.90;99.90
17529;DHT22;8882;53.192;8.184;2023-03-01T08:00:23;-0.90;99.90
17529;DHT22;8882;53.192;8.184;2023-03-01T08:02:48;-0.90;99.90
17529;DHT22;8882;53.192;8.184;2023-03-01T08:05:14;-0.80;99.90
17529;DHT22;8882;53.192;8.184;2023-03-01T08:07:39;-0.80;99.90
17529;DHT22;8882;53.192;8.184;2023-03-01T08:10:05;-0.80;99.90
17529;DHT22;8882;53.192;8.184;2023-03-01T08:12:31;-0.70;99.90
17529;DHT22;8882;53.192;8.184;2023-03-01T08:14:56;-0.60;99.90
17529;DHT22;8882;53.192;8.184;2023-03-01T08:17:22;-0.60;99.90
17529;DHT22;8882;53.192;8.184;2023-03-01T08:19:47;-0.50;99.90
17529;DHT22;8882;53.192;8.184;2023-03-01T08:22:13;-0.40;99.90
17529;DHT22;8882;53.192;8.184;2023-03-01T08:24:38;-0.40;99.90
17529;DHT22;8882;53.192;8.184;2023-03-01T08:27:04;-0.20;99.90
17529;DHT22;8882;53.192;8.184;2023-03-01T08:29:33;-0.20;99.90
17529;DHT22;8882;53.192;8.184;2023-03-01T08:31:59;-0.10;99.90
17529;DHT22;8882;53.192;8.184;2023-03-01T08:34:25;-0.10;99.90
17529;DHT22;8882;53.192;8.184;2023-03-01T08:36:50;0.00;99.90
17529;DHT22;8882;53.192;8.184;2023-03-01T08:39:19;0.10;99.90
17529;DHT22;8882;53.192;8.184;2023-03-01T08:41:45;0.10;99.90
17529;DHT22;8882;53.192;8.184;2023-03-01T08:44:13;0.20;99.90
17529;DHT22;8882;53.192;8.184;2023-03-01T08:46:41;0.30;99.90
17529;DHT22;8882;53.192;8.184;2023-03-01T08:49:27;0.40;99.90
17529;DHT22;8882;53.192;8.184;2023-03-01T08:51:52;0.50;99.90
17529;DHT22;8882;53.192;8.184;2023-03-01T08:54:20;0.60;99.90
17529;DHT22;8882;53.192;8.184;2023-03-01T08:56:46;0.60;99.90
17529;DHT22;8882;53.192;8.184;2023-03-01T08:59:13;0.70;99.90
17529;DHT22;8882;53.192;8.184;2023-03-01T09:01:39;0.80;99.90
17529;DHT22;8882;53.192;8.184;2023-03-01T09:04:05;1.00;99.90
17529;DHT22;8882;53.192;8.184;2023-03-01T09:06:32;1.20;99.90
17529;DHT22;8882;53.192;8.184;2023-03-01T09:08:58;1.30;99.90
17529;DHT22;8882;53.192;8.184;2023-03-01T09:11:24;1.40;99.90
17529;DHT22;8882;53.192;8.184;2023-03-01T09:13:50;1.50;99.90
17529;DHT22;8882;53.192;8.184;2023-03-01T09:16:18;1.60;99.90
17529;DHT22;8882;53.192;8.184;2023-03-01T09:18:44;1.70;99.90
17529;DHT22;8882;53.192;8.184;2023-03-01T09:21:15;1.90;99.90
17529;DHT22;8882;53.192;8.184;2023-03-01T09:23:43;2.00;99.90
17529;DHT22;8882;53.192;8.184;2023-03-01T09:26:12;2.10;99.90
17529;DHT22;8882;53.192;8.184;2023-03-01T09:28:38;2.30;99.90
17529;DHT22;8882;53.192;8.184;2023-03-01T09:31:04;2.40;99.90
17529;DHT22;8882;53.192;8.184;2023-03-01T09:33:31;2.60;99.90
17529;DHT22;8882;53.192;8.184;2023-03-01T09:36:02;2.70;99.90
17529;DHT22;8882;53.192;8.184;2023-03-01T09:38:28;2.80;99.90
17529;DHT22;8882;53.192;8.184;2023-03-01T09:40:54;3.00;99.90
17529;DHT22;8882;53.192;8.184;2023-03-01T09:46:08;3.20;99.90
17529;DHT22;8882;53.192;8.184;2023-03-01T09:48:52;3.30;99.90
17529;DHT22;8882;53.192;8.184;2023-03-01T09:51:35;3.70;99.90
17529;DHT22;8882;53.192;8.184;2023-03-01T09:54:02;3.80;99.90
17529;DHT22;8882;53.192;8.184;2023-03-01T09:56:41;4.10;99.90
17529;DHT22;8882;53.192;8.184;2023-03-01T10:02:12;4.50;99.90
17529;DHT22;8882;53.192;8.184;2023-03-01T10:04:49;4.80;99.90
17529;DHT22;8882;53.192;8.184;2023-03-01T10:10:00;5.00;99.90
17529;DHT22;8882;53.192;8.184;2023-03-01T10:12:35;5.10;99.90
17529;DHT22;8882;53.192;8.184;2023-03-01T10:15:15;5.20;99.90
17529;DHT22;8882;53.192;8.184;2023-03-01T10:17:46;5.50;99.90
17529;DHT22;8882;53.192;8.184;2023-03-01T10:22:39;5.60;99.90
17529;DHT22;8882;53.192;8.184;2023-03-01T10:25:05;5.90;99.90
17529;DHT22;8882;53.192;8.184;2023-03-01T10:27:53;6.20;99.90
17529;DHT22;8882;53.192;8.184;2023-03-01T10:30:35;6.30;99.90
17529;DHT22;8882;53.192;8.184;2023-03-01T10:33:08;6.30;99.90
17529;DHT22;8882;53.192;8.184;2023-03-01T10:35:39;6.40;99.90
17529;DHT22;8882;53.192;8.184;2023-03-01T10:38:12;6.70;99.90
17529;DHT22;8882;53.192;8.184;2023-03-01T10:41:05;7.10;99.90
17529;DHT22;8882;53.192;8.184;2023-03-01T10:43:54;7.30;99.90
17529;DHT22;8882;53.192;8.184;2023-03-01T10:49:17;7.20;99.90
17529;DHT22;8882;53.192;8.184;2023-03-01T10:51:48;7.10;99.90
17529;DHT22;8882;53.192;8.184;2023-03-01T10:54:20;7.10;99.90
17529;DHT22;8882;53.192;8.184;2023-03-01T10:56:54;7.10;99.90
17529;DHT22;8882;53.192;8.184;2023-03-01T10:59:32;7.00;99.90
17529;DHT22;8882;53.192;8.184;2023-03-01T11:02:13;7.00;99.90
17529;DHT22;8882;53.192;8.184;2023-03-01T11:04:41;7.00;99.90
17529;DHT22;8882;53.192;8.184;2023-03-01T11:07:21;7.10;99.90
17529;DHT22;8882;53.192;8.184;2023-03-01T11:09:46;7.30;99.90
17529;DHT22;8882;53.192;8.184;2023-03-01T11:12:14;7.20;99.90
17529;DHT22;8882;53.192;8.184;2023-03-01T11:14:47;7.40;99.90
17529;DHT22;8882;53.192;8.184;2023-03-01T11:17:28;7.50;99.90
17529;DHT22;8882;53.192;8.184;2023-03-01T11:22:54;7.30;99.90
17529;DHT22;8882;53.192;8.184;2023-03-01T11:25:24;7.40;99.90
17529;DHT22;8882;53.192;8.184;2023-03-01T11:27:52;7.30;99.90
17529;DHT22;8882;53.192;8.184;2023-03-01T11:35:27;7.30;99.90
17529;DHT22;8882;53.192;8.184;2023-03-01T11:38:20;7.30;99.90
17529;DHT22;8882;53.192;8.184;2023-03-01T11:41:11;7.40;99.90
17529;DHT22;8882;53.192;8.184;2023-03-01T11:49:18;7.30;99.90
17529;DHT22;8882;53.192;8.184;2023-03-01T11:57:20;7.20;99.90
17529;DHT22;8882;53.192;8.184;2023-03-01T12:05:35;7.20;99.90
17529;DHT22;8882;53.192;8.184;2023-03-01T12:11:02;7.30;99.90
17529;DHT22;8882;53.192;8.184;2023-03-01T12:13:48;7.40;99.90
17529;DHT22;8882;53.192;8.184;2023-03-01T12:19:08;7.40;99.90
17529;DHT22;8882;53.192;8.184;2023-03-01T12:29:48;7.50;99.90
17529;DHT22;8882;53.192;8.184;2023-03-01T12:37:44;7.60;99.90
17529;DHT22;8882;53.192;8.184;2023-03-01T12:43:19;7.60;99.90
17529;DHT22;8882;53.192;8.184;2023-03-01T12:46:14;7.60;99.90
17529;DHT22;8882;53.192;8.184;2023-03-01T12:49:02;7.60;99.90
17529;DHT22;8882;53.192;8.184;2023-03-01T12:51:32;7.60;99.90
17529;DHT22;8882;53.192;8.184;2023-03-01T12:54:05;7.70;99.90
17529;DHT22;8882;53.192;8.184;2023-03-01T12:56:35;7.80;99.90
17529;DHT22;8882;53.192;8.184;2023-03-01T12:59:19;7.90;99.90
17529;DHT22;8882;53.192;8.184;2023-03-01T13:01:51;7.90;99.90
17529;DHT22;8882;53.192;8.184;2023-03-01T13:04:25;7.90;99.90
17529;DHT22;8882;53.192;8.184;2023-03-01T13:07:25;7.90;99.90
17529;DHT22;8882;53.192;8.184;2023-03-01T13:10:14;8.00;99.90
17529;DHT22;8882;53.192;8.184;2023-03-01T13:17:48;7.70;99.90
17529;DHT22;8882;53.192;8.184;2023-03-01T13:20:16;7.80;99.90
17529;DHT22;8882;53.192;8.184;2023-03-01T13:22:43;7.90;99.90
17529;DHT22;8882;53.192;8.184;2023-03-01T13:25:18;7.90;99.90
17529;DHT22;8882;53.192;8.184;2023-03-01T13:27:46;7.90;99.90
17529;DHT22;8882;53.192;8.184;2023-03-01T13:33:44;8.00;99.90
17529;DHT22;8882;53.192;8.184;2023-03-01T13:36:11;8.10;99.90
17529;DHT22;8882;53.192;8.184;2023-03-01T13:47:15;8.00;99.90
17529;DHT22;8882;53.192;8.184;2023-03-01T13:49:43;7.90;99.90
17529;DHT22;8882;53.192;8.184;2023-03-01T13:52:38;7.80;99.90
17529;DHT22;8882;53.192;8.184;2023-03-01T13:57:43;7.80;99.90
17529;DHT22;8882;53.192;8.184;2023-03-01T14:00:31;7.90;99.90
17529;DHT22;8882;53.192;8.184;2023-03-01T14:03:17;7.90;99.90
17529;DHT22;8882;53.192;8.184;2023-03-01T14:05:57;7.90;99.90
17529;DHT22;8882;53.192;8.184;2023-03-01T14:08:26;8.00;99.90
17529;DHT22;8882;53.192;8.184;2023-03-01T14:14:17;8.10;99.90
17529;DHT22;8882;53.192;8.184;2023-03-01T14:16:59;8.10;99.90
17529;DHT22;8882;53.192;8.184;2023-03-01T14:19:30;8.30;99.90
17529;DHT22;8882;53.192;8.184;2023-03-01T14:22:26;8.20;99.90
17529;DHT22;8882;53.192;8.184;2023-03-01T14:24:58;8.00;99.90
17529;DHT22;8882;53.192;8.184;2023-03-01T14:27:35;7.90;99.90
17529;DHT22;8882;53.192;8.184;2023-03-01T14:30:13;7.80;99.90
17529;DHT22;8882;53.192;8.184;2023-03-01T14:32:39;7.80;99.90
17529;DHT22;8882;53.192;8.184;2023-03-01T14:35:29;7.70;99.90
17529;DHT22;8882;53.192;8.184;2023-03-01T14:37:55;7.60;99.90
17529;DHT22;8882;53.192;8.184;2023-03-01T14:40:24;7.50;99.90
17529;DHT22;8882;53.192;8.184;2023-03-01T14:42:50;7.50;99.90
17529;DHT22;8882;53.192;8.184;2023-03-01T14:45:16;7.50;99.90
17529;DHT22;8882;53.192;8.184;2023-03-01T14:47:44;7.50;99.90
17529;DHT22;8882;53.192;8.184;2023-03-01T14:50:29;7.60;99.90
17529;DHT22;8882;53.192;8.184;2023-03-01T14:52:59;7.50;99.90
17529;DHT22;8882;53.192;8.184;2023-03-01T14:55:38;7.50;99.90
17529;DHT22;8882;53.192;8.184;2023-03-01T14:58:11;7.50;99.90
17529;DHT22;8882;53.192;8.184;2023-03-01T15:00:38;7.60;99.90
17529;DHT22;8882;53.192;8.184;2023-03-01T15:03:30;7.60;99.90
17529;DHT22;8882;53.192;8.184;2023-03-01T15:05:57;7.50;99.90
17529;DHT22;8882;53.192;8.184;2023-03-01T15:08:24;7.50;99.90
17529;DHT22;8882;53.192;8.184;2023-03-01T15:13:38;7.40;99.90
17529;DHT22;8882;53.192;8.184;2023-03-01T15:16:27;7.40;99.90
17529;DHT22;8882;53.192;8.184;2023-03-01T15:18:57;7.30;99.90
17529;DHT22;8882;53.192;8.184;2023-03-01T15:21:27;7.30;99.90
17529;DHT22;8882;53.192;8.184;2023-03-01T15:26:47;7.20;99.90
17529;DHT22;8882;53.192;8.184;2023-03-01T15:29:21;7.20;99.90
17529;DHT22;8882;53.192;8.184;2023-03-01T15:32:00;7.20;99.90
17529;DHT22;8882;53.192;8.184;2023-03-01T15:34:29;7.10;99.90
17529;DHT22;8882;53.192;8.184;2023-03-01T15:36:57;7.10;99.90
17529;DHT22;8882;53.192;8.184;2023-03-01T15:44:49;7.10;99.90
17529;DHT22;8882;53.192;8.184;2023-03-01T15:47:26;7.00;99.90
17529;DHT22;8882;53.192;8.184;2023-03-01T15:49:53;7.00;99.90
17529;DHT22;8882;53.192;8.184;2023-03-01T15:54:56;6.90;99.90
17529;DHT22;8882;53.192;8.184;2023-03-01T15:57:22;6.90;99.90
17529;DHT22;8882;53.192;8.184;2023-03-01T15:59:47;7.00;99.90
17529;DHT22;8882;53.192;8.184;2023-03-01T16:02:14;7.00;99.90
17529;DHT22;8882;53.192;8.184;2023-03-01T16:04:40;7.10;99.90
17529;DHT22;8882;53.192;8.184;2023-03-01T16:07:05;7.00;99.90
17529;DHT22;8882;53.192;8.184;2023-03-01T16:09:31;6.90;99.90
17529;DHT22;8882;53.192;8.184;2023-03-01T16:11:57;6.80;99.90
17529;DHT22;8882;53.192;8.184;2023-03-01T16:14:23;6.80;99.90
17529;DHT22;8882;53.192;8.184;2023-03-01T16:16:48;6.80;99.90
17529;DHT22;8882;53.192;8.184;2023-03-01T16:19:14;6.80;99.90
17529;DHT22;8882;53.192;8.184;2023-03-01T16:21:41;6.70;99.90
17529;DHT22;8882;53.192;8.184;2023-03-01T16:24:08;6.70;99.90
17529;DHT22;8882;53.192;8.184;2023-03-01T16:26:34;6.80;99.90
17529;DHT22;8882;53.192;8.184;2023-03-01T16:28:59;6.80;99.90
17529;DHT22;8882;53.192;8.184;2023-03-01T16:31:25;6.80;99.90
17529;DHT22;8882;53.192;8.184;2023-03-01T16:33:55;6.70;99.90
17529;DHT22;8882;53.192;8.184;2023-03-01T16:36:22;6.60;99.90
17529;DHT22;8882;53.192;8.184;2023-03-01T16:38:52;6.50;99.90
17529;DHT22;8882;53.192;8.184;2023-03-01T16:41:20;6.50;99.90
17529;DHT22;8882;53.192;8.184;2023-03-01T16:43:46;6.40;99.90
17529;DHT22;8882;53.192;8.184;2023-03-01T16:46:18;6.30;99.90
17529;DHT22;8882;53.192;8.184;2023-03-01T16:48:44;6.20;99.90
17529;DHT22;8882;53.192;8.184;2023-03-01T16:51:11;6.20;99.90
17529;DHT22;8882;53.192;8.184;2023-03-01T16:53:37;6.10;99.90
17529;DHT22;8882;53.192;8.184;2023-03-01T16:56:05;6.00;99.90
17529;DHT22;8882;53.192;8.184;2023-03-01T16:58:31;6.00;99.90
17529;DHT22;8882;53.192;8.184;2023-03-01T17:01:02;5.90;99.90
17529;DHT22;8882;53.192;8.184;2023-03-01T17:03:28;5.80;99.90
17529;DHT22;8882;53.192;8.184;2023-03-01T17:05:54;5.70;99.90
17529;DHT22;8882;53.192;8.184;2023-03-01T17:08:20;5.60;99.90
17529;DHT22;8882;53.192;8.184;2023-03-01T17:10:45;5.50;99.90
17529;DHT22;8882;53.192;8.184;2023-03-01T17:13:11;5.40;99.90
17529;DHT22;8882;53.192;8.184;2023-03-01T17:15:40;5.40;99.90
17529;DHT22;8882;53.192;8.184;2023-03-01T17:18:07;5.30;99.90
17529;DHT22;8882;53.192;8.184;2023-03-01T17:20:33;5.10;99.90
17529;DHT22;8882;53.192;8.184;2023-03-01T17:22:59;5.20;99.90
17529;DHT22;8882;53.192;8.184;2023-03-01T17:25:24;5.10;99.90
17529;DHT22;8882;53.192;8.184;2023-03-01T17:27:50;5.00;99.90
17529;DHT22;8882;53.192;8.184;2023-03-01T17:30:16;4.80;99.90
17529;DHT22;8882;53.192;8.184;2023-03-01T17:32:42;4.70;99.90
17529;DHT22;8882;53.192;8.184;2023-03-01T17:35:08;4.70;99.90
17529;DHT22;8882;53.192;8.184;2023-03-01T17:37:35;4.60;99.90
17529;DHT22;8882;53.192;8.184;2023-03-01T17:40:02;4.60;99.90
17529;DHT22;8882;53.192;8.184;2023-03-01T17:42:28;4.50;99.90
17529;DHT22;8882;53.192;8.184;2023-03-01T17:44:53;4.40;99.90
17529;DHT22;8882;53.192;8.184;2023-03-01T17:47:19;4.30;99.90
17529;DHT22;8882;53.192;8.184;2023-03-01T17:49:44;4.20;99.90
17529;DHT22;8882;53.192;8.184;2023-03-01T17:52:10;4.10;99.90
17529;DHT22;8882;53.192;8.184;2023-03-01T17:54:35;4.10;99.90
17529;DHT22;8882;53.192;8.184;2023-03-01T17:57:01;4.00;99.90
17529;DHT22;8882;53.192;8.184;2023-03-01T17:59:26;4.00;99.90
17529;DHT22;8882;53.192;8.184;2023-03-01T18:01:58;3.90;99.90
17529;DHT22;8882;53.192;8.184;2023-03-01T18:04:26;3.90;99.90
17529;DHT22;8882;53.192;8.184;2023-03-01T18:06:52;3.80;99.90
17529;DHT22;8882;53.192;8.184;2023-03-01T18:09:17;3.80;99.90
17529;DHT22;8882;53.192;8.184;2023-03-01T18:11:43;3.80;99.90
17529;DHT22;8882;53.192;8.184;2023-03-01T18:14:09;3.80;99.90
17529;DHT22;8882;53.192;8.184;2023-03-01T18:16:34;3.70;99.90
17529;DHT22;8882;53.192;8.184;2023-03-01T18:19:01;3.70;99.90
17529;DHT22;8882;53.192;8.184;2023-03-01T18:21:28;3.70;99.90
17529;DHT22;8882;53.192;8.184;2023-03-01T18:23:54;3.60;99.90
17529;DHT22;8882;53.192;8.184;2023-03-01T18:26:19;3.70;99.90
17529;DHT22;8882;53.192;8.184;2023-03-01T18:28:48;3.70;99.90
17529;DHT22;8882;53.192;8.184;2023-03-01T18:31:16;3.60;99.90
17529;DHT22;8882;53.192;8.184;2023-03-01T18:33:47;3.60;99.90
17529;DHT22;8882;53.192;8.184;2023-03-01T18:36:19;3.70;99.90
17529;DHT22;8882;53.192;8.184;2023-03-01T18:38:45;3.60;99.90
17529;DHT22;8882;53.192;8.184;2023-03-01T18:41:11;3.50;99.90
17529;DHT22;8882;53.192;8.184;2023-03-01T18:43:36;3.50;99.90
17529;DHT22;8882;53.192;8.184;2023-03-01T18:46:02;3.40;99.90
17529;DHT22;8882;53.192;8.184;2023-03-01T18:48:29;3.40;99.90
17529;DHT22;8882;53.192;8.184;2023-03-01T18:50:55;3.50;99.90
17529;DHT22;8882;53.192;8.184;2023-03-01T18:53:21;3.40;99.90
17529;DHT22;8882;53.192;8.184;2023-03-01T18:55:46;3.40;99.90
17529;DHT22;8882;53.192;8.184;2023-03-01T18:58:12;3.40;99.90
17529;DHT22;8882;53.192;8.184;2023-03-01T19:00:37;3.40;99.90
17529;DHT22;8882;53.192;8.184;2023-03-01T19:03:03;3.30;99.90
17529;DHT22;8882;53.192;8.184;2023-03-01T19:05:29;3.40;99.90
17529;DHT22;8882;53.192;8.184;2023-03-01T19:07:55;3.30;99.90
17529;DHT22;8882;53.192;8.184;2023-03-01T19:10:20;3.40;99.90
17529;DHT22;8882;53.192;8.184;2023-03-01T19:12:46;3.40;99.90
17529;DHT22;8882;53.192;8.184;2023-03-01T19:15:12;3.30;99.90
17529;DHT22;8882;53.192;8.184;2023-03-01T19:17:41;3.30;99.90
17529;DHT22;8882;53.192;8.184;2023-03-01T19:20:07;3.30;99.90
17529;DHT22;8882;53.192;8.184;2023-03-01T19:22:32;3.20;99.90
17529;DHT22;8882;53.192;8.184;2023-03-01T19:24:58;3.20;99.90
17529;DHT22;8882;53.192;8.184;2023-03-01T19:27:23;3.10;99.90
17529;DHT22;8882;53.192;8.184;2023-03-01T19:29:49;3.20;99.90
17529;DHT22;8882;53.192;8.184;2023-03-01T19:32:14;3.20;99.90
17529;DHT22;8882;53.192;8.184;2023-03-01T19:34:40;3.20;99.90
17529;DHT22;8882;53.192;8.184;2023-03-01T19:37:06;3.20;99.90
17529;DHT22;8882;53.192;8.184;2023-03-01T19:39:34;3.20;99.90
17529;DHT22;8882;53.192;8.184;2023-03-01T19:41:59;3.20;99.90
17529;DHT22;8882;53.192;8.184;2023-03-01T19:44:25;3.10;99.90
17529;DHT22;8882;53.192;8.184;2023-03-01T19:46:54;3.10;99.90
17529;DHT22;8882;53.192;8.184;2023-03-01T19:49:22;3.00;99.90
17529;DHT22;8882;53.192;8.184;2023-03-01T19:51:47;3.00;99.90
17529;DHT22;8882;53.192;8.184;2023-03-01T19:54:13;3.00;99.90
17529;DHT22;8882;53.192;8.184;2023-03-01T19:56:47;3.20;99.90
17529;DHT22;8882;53.192;8.184;2023-03-01T19:59:13;3.00;99.90
17529;DHT22;8882;53.192;8.184;2023-03-01T20:01:39;3.00;99.90
17529;DHT22;8882;53.192;8.184;2023-03-01T20:04:08;3.00;99.90
17529;DHT22;8882;53.192;8.184;2023-03-01T20:06:35;3.00;99.90
17529;DHT22;8882;53.192;8.184;2023-03-01T20:09:03;2.90;99.90
17529;DHT22;8882;53.192;8.184;2023-03-01T20:11:30;3.00;99.90
17529;DHT22;8882;53.192;8.184;2023-03-01T20:13:57;3.00;99.90
17529;DHT22;8882;53.192;8.184;2023-03-01T21:37:26;2.40;99.90
17529;DHT22;8882;53.192;8.184;2023-03-01T21:39:52;2.50;99.90
17529;DHT22;8882;53.192;8.184;2023-03-01T21:42:17;2.40;99.90
17529;DHT22;8882;53.192;8.184;2023-03-01T21:44:43;2.40;99.90
17529;DHT22;8882;53.192;8.184;2023-03-01T21:47:08;2.40;99.90
17529;DHT22;8882;53.192;8.184;2023-03-01T21:49:36;2.40;99.90
17529;DHT22;8882;53.192;8.184;2023-03-01T21:52:01;2.40;99.90
17529;DHT22;8882;53.192;8.184;2023-03-01T21:54:27;2.30;99.90
17529;DHT22;8882;53.192;8.184;2023-03-01T21:56:52;2.30;99.90
17529;DHT22;8882;53.192;8.184;2023-03-01T21:59:20;2.30;99.90
